sensor_id;sensor_type;location;lat;lon;timestamp;temperature;humidity
63017;DHT22;50274;45.640;11.756;2022-10-16T00:00:56;19.00;71.50
63017;DHT22;50274;45.640;11.756;2022-10-16T00:03:22;19.00;71.40
63017;DHT22;50274;45.640;11.756;2022-10-16T00:05:48;19.00;71.40
63017;DHT22;50274;45.640;11.756;2022-10-16T00:08:14;19.00;71.40
63017;DHT22;50274;45.640;11.756;2022-10-16T00:10:40;19.00;71.40
63017;DHT22;50274;45.640;11.756;2022-10-16T00:13:07;18.90;71.40
63017;DHT22;50274;45.640;11.756;2022-10-16T00:15:35;19.00;71.50
63017;DHT22;50274;45.640;11.756;2022-10-16T00:18:04;19.00;71.50
63017;DHT22;50274;45.640;11.756;2022-10-16T00:20:33;19.00;71.50
63017;DHT22;50274;45.640;11.756;2022-10-16T00:22:59;19.00;71.50
63017;DHT22;50274;45.640;11.756;2022-10-16T00:25:25;19.00;71.50
63017;DHT22;50274;45.640;11.756;2022-10-16T00:27:51;19.00;71.50
63017;DHT22;50274;45.640;11.756;2022-10-16T00:30:17;19.00;71.60
63017;DHT22;50274;45.640;11.756;2022-10-16T00:32:42;19.00;71.60
63017;DHT22;50274;45.640;11.756;2022-10-16T00:35:08;19.00;71.60
63017;DHT22;50274;45.640;11.756;2022-10-16T00:37:34;19.00;71.70
63017;DHT22;50274;45.640;11.756;2022-10-16T00:40:00;19.00;71.70
63017;DHT22;50274;45.640;11.756;2022-10-16T00:42:25;19.00;71.70
63017;DHT22;50274;45.640;11.756;2022-10-16T00:44:53;19.00;71.70
63017;DHT22;50274;45.640;11.756;2022-10-16T00:49:52;18.90;71.80
63017;DHT22;50274;45.640;11.756;2022-10-16T00:52:19;18.90;71.80
63017;DHT22;50274;45.640;11.756;2022-10-16T00:54:46;18.90;71.90
63017;DHT22;50274;45.640;11.756;2022-10-16T00:57:12;18.90;71.90
63017;DHT22;50274;45.640;11.756;2022-10-16T00:59:40;18.80;72.00
63017;DHT22;50274;45.640;11.756;2022-10-16T01:02:09;18.90;72.00
63017;DHT22;50274;45.640;11.756;2022-10-16T01:04:44;18.80;72.10
63017;DHT22;50274;45.640;11.756;2022-10-16T01:15:35;18.80;72.20
63017;DHT22;50274;45.640;11.756;2022-10-16T01:18:11;18.80;72.30
63017;DHT22;50274;45.640;11.756;2022-10-16T01:31:24;18.70;72.70
63017;DHT22;50274;45.640;11.756;2022-10-16T01:34:14;18.70;72.90
63017;DHT22;50274;45.640;11.756;2022-10-16T01:37:02;18.60;72.90
63017;DHT22;50274;45.640;11.756;2022-10-16T01:39:32;18.60;72.90
63017;DHT22;50274;45.640;11.756;2022-10-16T01:42:12;18.60;72.90
63017;DHT22;50274;45.640;11.756;2022-10-16T01:44:41;18.60;73.00
63017;DHT22;50274;45.640;11.756;2022-10-16T01:47:09;18.50;73.00
63017;DHT22;50274;45.640;11.756;2022-10-16T01:49:37;18.50;73.00
63017;DHT22;50274;45.640;11.756;2022-10-16T01:52:07;18.50;73.10
63017;DHT22;50274;45.640;11.756;2022-10-16T01:54:37;18.50;73.00
63017;DHT22;50274;45.640;11.756;2022-10-16T01:57:05;18.50;73.10
63017;DHT22;50274;45.640;11.756;2022-10-16T01:59:34;18.50;73.10
63017;DHT22;50274;45.640;11.756;2022-10-16T02:02:05;18.50;73.20
63017;DHT22;50274;45.640;11.756;2022-10-16T02:04:36;18.40;73.20
63017;DHT22;50274;45.640;11.756;2022-10-16T02:07:03;18.40;73.30
63017;DHT22;50274;45.640;11.756;2022-10-16T02:09:30;18.30;73.40
63017;DHT22;50274;45.640;11.756;2022-10-16T02:11:59;18.40;73.50
63017;DHT22;50274;45.640;11.756;2022-10-16T02:14:28;18.30;73.50
63017;DHT22;50274;45.640;11.756;2022-10-16T02:16:54;18.30;73.60
63017;DHT22;50274;45.640;11.756;2022-10-16T02:19:20;18.30;73.60
63017;DHT22;50274;45.640;11.756;2022-10-16T02:21:51;18.30;73.70
63017;DHT22;50274;45.640;11.756;2022-10-16T02:30:21;18.30;73.70
63017;DHT22;50274;45.640;11.756;2022-10-16T02:32:48;18.30;73.70
63017;DHT22;50274;45.640;11.756;2022-10-16T02:35:17;18.30;73.60
63017;DHT22;50274;45.640;11.756;2022-10-16T02:37:45;18.20;73.60
63017;DHT22;50274;45.640;11.756;2022-10-16T02:40:12;18.20;73.70
63017;DHT22;50274;45.640;11.756;2022-10-16T02:42:40;18.20;73.70
63017;DHT22;50274;45.640;11.756;2022-10-16T02:45:07;18.20;73.80
63017;DHT22;50274;45.640;11.756;2022-10-16T02:47:33;18.20;73.80
63017;DHT22;50274;45.640;11.756;2022-10-16T02:49:59;18.20;73.80
63017;DHT22;50274;45.640;11.756;2022-10-16T02:52:25;18.20;73.80
63017;DHT22;50274;45.640;11.756;2022-10-16T02:54:51;18.30;73.80
63017;DHT22;50274;45.640;11.756;2022-10-16T02:57:17;18.30;73.80
63017;DHT22;50274;45.640;11.756;2022-10-16T02:59:43;18.20;73.80
63017;DHT22;50274;45.640;11.756;2022-10-16T03:02:09;18.20;73.80
63017;DHT22;50274;45.640;11.756;2022-10-16T03:04:35;18.20;73.80
63017;DHT22;50274;45.640;11.756;2022-10-16T03:07:02;18.20;73.90
63017;DHT22;50274;45.640;11.756;2022-10-16T03:09:28;18.20;73.80
63017;DHT22;50274;45.640;11.756;2022-10-16T03:11:54;18.20;73.90
63017;DHT22;50274;45.640;11.756;2022-10-16T03:14:19;18.30;73.90
63017;DHT22;50274;45.640;11.756;2022-10-16T03:16:45;18.30;73.90
63017;DHT22;50274;45.640;11.756;2022-10-16T03:19:11;18.20;73.90
63017;DHT22;50274;45.640;11.756;2022-10-16T03:21:37;18.20;74.00
63017;DHT22;50274;45.640;11.756;2022-10-16T03:24:03;18.20;74.00
63017;DHT22;50274;45.640;11.756;2022-10-16T03:26:29;18.20;74.00
63017;DHT22;50274;45.640;11.756;2022-10-16T03:28:54;18.20;74.00
63017;DHT22;50274;45.640;11.756;2022-10-16T03:31:20;18.20;74.00
63017;DHT22;50274;45.640;11.756;2022-10-16T03:33:46;18.20;74.00
63017;DHT22;50274;45.640;11.756;2022-10-16T03:36:12;18.20;74.00
63017;DHT22;50274;45.640;11.756;2022-10-16T03:38:38;18.20;74.00
63017;DHT22;50274;45.640;11.756;2022-10-16T03:41:03;18.20;74.00
63017;DHT22;50274;45.640;11.756;2022-10-16T03:43:29;18.20;74.00
63017;DHT22;50274;45.640;11.756;2022-10-16T03:45:55;18.20;74.00
63017;DHT22;50274;45.640;11.756;2022-10-16T03:48:21;18.20;74.00
63017;DHT22;50274;45.640;11.756;2022-10-16T03:50:47;18.20;74.00
63017;DHT22;50274;45.640;11.756;2022-10-16T03:53:14;18.10;74.00
63017;DHT22;50274;45.640;11.756;2022-10-16T03:55:44;18.10;74.00
63017;DHT22;50274;45.640;11.756;2022-10-16T03:58:10;18.10;74.00
63017;DHT22;50274;45.640;11.756;2022-10-16T04:00:36;18.10;74.10
63017;DHT22;50274;45.640;11.756;2022-10-16T04:03:05;18.10;74.10
63017;DHT22;50274;45.640;11.756;2022-10-16T04:05:30;18.10;74.10
63017;DHT22;50274;45.640;11.756;2022-10-16T04:07:56;18.10;74.10
63017;DHT22;50274;45.640;11.756;2022-10-16T04:10:22;18.00;74.10
63017;DHT22;50274;45.640;11.756;2022-10-16T04:12:48;18.00;74.10
63017;DHT22;50274;45.640;11.756;2022-10-16T04:15:14;18.00;74.10
63017;DHT22;50274;45.640;11.756;2022-10-16T04:17:39;17.90;74.00
63017;DHT22;50274;45.640;11.756;2022-10-16T04:20:06;18.00;74.00
63017;DHT22;50274;45.640;11.756;2022-10-16T04:22:31;17.90;74.00
63017;DHT22;50274;45.640;11.756;2022-10-16T04:24:57;17.90;74.00
63017;DHT22;50274;45.640;11.756;2022-10-16T04:27:23;17.90;74.00
63017;DHT22;50274;45.640;11.756;2022-10-16T04:29:49;17.90;74.00
63017;DHT22;50274;45.640;11.756;2022-10-16T04:32:15;17.80;74.00
63017;DHT22;50274;45.640;11.756;2022-10-16T04:34:41;17.80;74.00
63017;DHT22;50274;45.640;11.756;2022-10-16T04:37:07;17.80;74.00
63017;DHT22;50274;45.640;11.756;2022-10-16T04:39:33;17.80;74.10
63017;DHT22;50274;45.640;11.756;2022-10-16T04:41:58;17.80;74.00
63017;DHT22;50274;45.640;11.756;2022-10-16T04:44:24;17.70;74.00
63017;DHT22;50274;45.640;11.756;2022-10-16T04:46:51;17.70;74.00
63017;DHT22;50274;45.640;11.756;2022-10-16T04:49:16;17.70;74.10
63017;DHT22;50274;45.640;11.756;2022-10-16T04:51:42;17.70;74.00
63017;DHT22;50274;45.640;11.756;2022-10-16T04:54:09;17.70;74.10
63017;DHT22;50274;45.640;11.756;2022-10-16T04:56:35;17.70;74.10
63017;DHT22;50274;45.640;11.756;2022-10-16T04:59:09;17.70;74.10
63017;DHT22;50274;45.640;11.756;2022-10-16T05:01:35;17.60;74.10
63017;DHT22;50274;45.640;11.756;2022-10-16T05:04:01;17.60;74.10
63017;DHT22;50274;45.640;11.756;2022-10-16T05:06:27;17.60;74.10
63017;DHT22;50274;45.640;11.756;2022-10-16T05:08:52;17.60;74.10
63017;DHT22;50274;45.640;11.756;2022-10-16T05:11:18;17.60;74.10
63017;DHT22;50274;45.640;11.756;2022-10-16T05:13:44;17.50;74.20
63017;DHT22;50274;45.640;11.756;2022-10-16T05:16:10;17.50;74.20
63017;DHT22;50274;45.640;11.756;2022-10-16T05:18:36;17.50;74.20
63017;DHT22;50274;45.640;11.756;2022-10-16T05:21:01;17.50;74.30
63017;DHT22;50274;45.640;11.756;2022-10-16T05:23:27;17.40;74.30
63017;DHT22;50274;45.640;11.756;2022-10-16T05:25:57;17.40;74.30
63017;DHT22;50274;45.640;11.756;2022-10-16T05:28:28;17.30;74.40
63017;DHT22;50274;45.640;11.756;2022-10-16T05:30:56;17.30;74.40
63017;DHT22;50274;45.640;11.756;2022-10-16T05:33:23;17.30;74.30
63017;DHT22;50274;45.640;11.756;2022-10-16T05:35:49;17.30;74.40
63017;DHT22;50274;45.640;11.756;2022-10-16T05:38:16;17.30;74.40
63017;DHT22;50274;45.640;11.756;2022-10-16T05:40:42;17.20;74.40
63017;DHT22;50274;45.640;11.756;2022-10-16T05:43:08;17.20;74.40
63017;DHT22;50274;45.640;11.756;2022-10-16T05:45:34;17.20;74.40
63017;DHT22;50274;45.640;11.756;2022-10-16T05:48:00;17.20;74.40
63017;DHT22;50274;45.640;11.756;2022-10-16T05:50:27;17.20;74.30
63017;DHT22;50274;45.640;11.756;2022-10-16T05:52:52;17.10;74.30
63017;DHT22;50274;45.640;11.756;2022-10-16T05:55:18;17.10;74.30
63017;DHT22;50274;45.640;11.756;2022-10-16T05:57:44;17.10;74.20
63017;DHT22;50274;45.640;11.756;2022-10-16T06:00:10;17.10;74.30
63017;DHT22;50274;45.640;11.756;2022-10-16T06:02:36;17.10;74.30
63017;DHT22;50274;45.640;11.756;2022-10-16T06:05:02;17.10;74.20
63017;DHT22;50274;45.640;11.756;2022-10-16T06:07:28;17.10;74.20
63017;DHT22;50274;45.640;11.756;2022-10-16T06:09:54;17.10;74.20
63017;DHT22;50274;45.640;11.756;2022-10-16T06:12:20;17.10;74.20
63017;DHT22;50274;45.640;11.756;2022-10-16T06:14:46;17.00;74.30
63017;DHT22;50274;45.640;11.756;2022-10-16T06:17:13;17.00;74.30
63017;DHT22;50274;45.640;11.756;2022-10-16T06:19:39;17.00;74.30
63017;DHT22;50274;45.640;11.756;2022-10-16T06:22:06;17.00;74.30
63017;DHT22;50274;45.640;11.756;2022-10-16T06:24:32;17.00;74.30
63017;DHT22;50274;45.640;11.756;2022-10-16T06:26:57;17.00;74.30
63017;DHT22;50274;45.640;11.756;2022-10-16T06:29:23;17.00;74.30
63017;DHT22;50274;45.640;11.756;2022-10-16T06:31:49;17.00;74.40
63017;DHT22;50274;45.640;11.756;2022-10-16T06:34:15;17.00;74.40
63017;DHT22;50274;45.640;11.756;2022-10-16T06:36:41;17.00;74.40
63017;DHT22;50274;45.640;11.756;2022-10-16T06:39:06;17.00;74.40
63017;DHT22;50274;45.640;11.756;2022-10-16T06:41:33;17.10;74.50
63017;DHT22;50274;45.640;11.756;2022-10-16T06:43:59;17.10;74.40
63017;DHT22;50274;45.640;11.756;2022-10-16T06:46:26;17.10;74.40
63017;DHT22;50274;45.640;11.756;2022-10-16T06:48:53;17.10;74.40
63017;DHT22;50274;45.640;11.756;2022-10-16T06:51:21;17.20;74.40
63017;DHT22;50274;45.640;11.756;2022-10-16T06:53:52;17.20;74.40
63017;DHT22;50274;45.640;11.756;2022-10-16T06:56:21;17.30;74.40
63017;DHT22;50274;45.640;11.756;2022-10-16T06:58:48;17.30;74.40
63017;DHT22;50274;45.640;11.756;2022-10-16T07:01:15;17.40;74.50
63017;DHT22;50274;45.640;11.756;2022-10-16T07:03:42;17.40;74.50
63017;DHT22;50274;45.640;11.756;2022-10-16T07:06:10;17.40;74.50
63017;DHT22;50274;45.640;11.756;2022-10-16T07:08:39;17.50;74.50
63017;DHT22;50274;45.640;11.756;2022-10-16T07:11:08;17.50;74.50
63017;DHT22;50274;45.640;11.756;2022-10-16T07:13:37;17.60;74.50
63017;DHT22;50274;45.640;11.756;2022-10-16T07:16:09;17.60;74.50
63017;DHT22;50274;45.640;11.756;2022-10-16T07:18:36;17.60;74.50
63017;DHT22;50274;45.640;11.756;2022-10-16T07:21:34;17.70;74.40
63017;DHT22;50274;45.640;11.756;2022-10-16T07:24:02;17.70;74.40
63017;DHT22;50274;45.640;11.756;2022-10-16T07:26:31;17.80;74.40
63017;DHT22;50274;45.640;11.756;2022-10-16T07:28:58;17.80;74.30
63017;DHT22;50274;45.640;11.756;2022-10-16T07:31:24;17.80;74.40
63017;DHT22;50274;45.640;11.756;2022-10-16T07:33:50;17.90;74.50
63017;DHT22;50274;45.640;11.756;2022-10-16T07:36:18;18.00;74.40
63017;DHT22;50274;45.640;11.756;2022-10-16T07:38:44;18.00;74.30
63017;DHT22;50274;45.640;11.756;2022-10-16T07:41:16;18.10;74.20
63017;DHT22;50274;45.640;11.756;2022-10-16T07:43:46;18.10;74.10
63017;DHT22;50274;45.640;11.756;2022-10-16T07:46:13;18.30;74.00
63017;DHT22;50274;45.640;11.756;2022-10-16T07:48:40;18.30;73.70
63017;DHT22;50274;45.640;11.756;2022-10-16T07:51:06;18.30;73.50
63017;DHT22;50274;45.640;11.756;2022-10-16T07:53:33;18.40;73.30
63017;DHT22;50274;45.640;11.756;2022-10-16T07:56:01;18.40;72.80
63017;DHT22;50274;45.640;11.756;2022-10-16T07:58:27;18.50;72.70
63017;DHT22;50274;45.640;11.756;2022-10-16T08:00:54;18.50;72.40
63017;DHT22;50274;45.640;11.756;2022-10-16T08:03:19;18.60;72.30
63017;DHT22;50274;45.640;11.756;2022-10-16T08:05:45;18.60;72.00
63017;DHT22;50274;45.640;11.756;2022-10-16T08:08:13;18.60;71.70
63017;DHT22;50274;45.640;11.756;2022-10-16T08:10:40;18.70;71.70
63017;DHT22;50274;45.640;11.756;2022-10-16T08:13:06;18.80;71.60
63017;DHT22;50274;45.640;11.756;2022-10-16T08:15:32;18.80;71.40
63017;DHT22;50274;45.640;11.756;2022-10-16T08:18:04;18.80;71.20
63017;DHT22;50274;45.640;11.756;2022-10-16T08:20:31;18.90;71.00
63017;DHT22;50274;45.640;11.756;2022-10-16T08:22:58;19.00;70.80
63017;DHT22;50274;45.640;11.756;2022-10-16T08:25:25;19.00;70.60
63017;DHT22;50274;45.640;11.756;2022-10-16T08:27:51;19.00;70.60
63017;DHT22;50274;45.640;11.756;2022-10-16T08:30:19;19.10;70.50
63017;DHT22;50274;45.640;11.756;2022-10-16T08:32:45;19.10;70.60
63017;DHT22;50274;45.640;11.756;2022-10-16T08:35:12;19.20;70.50
63017;DHT22;50274;45.640;11.756;2022-10-16T08:37:39;19.30;70.40
63017;DHT22;50274;45.640;11.756;2022-10-16T08:40:10;19.50;70.30
63017;DHT22;50274;45.640;11.756;2022-10-16T08:50:40;20.00;68.90
63017;DHT22;50274;45.640;11.756;2022-10-16T08:53:07;20.10;68.60
63017;DHT22;50274;45.640;11.756;2022-10-16T08:55:45;20.20;68.30
63017;DHT22;50274;45.640;11.756;2022-10-16T08:58:17;20.20;68.00
63017;DHT22;50274;45.640;11.756;2022-10-16T09:00:49;20.20;67.90
63017;DHT22;50274;45.640;11.756;2022-10-16T09:16:33;20.30;67.60
63017;DHT22;50274;45.640;11.756;2022-10-16T09:20:00;20.40;67.50
63017;DHT22;50274;45.640;11.756;2022-10-16T09:22:27;20.50;67.40
63017;DHT22;50274;45.640;11.756;2022-10-16T09:24:59;20.60;67.30
63017;DHT22;50274;45.640;11.756;2022-10-16T09:27:26;20.60;67.10
63017;DHT22;50274;45.640;11.756;2022-10-16T09:29:52;20.70;67.00
63017;DHT22;50274;45.640;11.756;2022-10-16T09:32:20;20.90;66.80
63017;DHT22;50274;45.640;11.756;2022-10-16T09:34:50;21.00;66.60
63017;DHT22;50274;45.640;11.756;2022-10-16T09:37:21;21.10;66.20
63017;DHT22;50274;45.640;11.756;2022-10-16T09:39:52;21.20;65.70
63017;DHT22;50274;45.640;11.756;2022-10-16T09:42:22;21.30;65.30
63017;DHT22;50274;45.640;11.756;2022-10-16T09:44:51;21.50;65.10
63017;DHT22;50274;45.640;11.756;2022-10-16T09:47:23;21.50;64.70
63017;DHT22;50274;45.640;11.756;2022-10-16T09:49:54;21.60;64.50
63017;DHT22;50274;45.640;11.756;2022-10-16T09:52:21;21.70;64.50
63017;DHT22;50274;45.640;11.756;2022-10-16T09:54:58;21.80;63.90
63017;DHT22;50274;45.640;11.756;2022-10-16T09:57:25;21.90;63.20
63017;DHT22;50274;45.640;11.756;2022-10-16T09:59:55;22.00;62.70
63017;DHT22;50274;45.640;11.756;2022-10-16T10:02:30;22.10;62.30
63017;DHT22;50274;45.640;11.756;2022-10-16T10:04:58;22.20;62.20
63017;DHT22;50274;45.640;11.756;2022-10-16T10:07:27;22.40;62.30
63017;DHT22;50274;45.640;11.756;2022-10-16T10:09:55;22.50;62.30
63017;DHT22;50274;45.640;11.756;2022-10-16T10:12:27;22.60;62.00
63017;DHT22;50274;45.640;11.756;2022-10-16T10:14:56;22.60;61.40
63017;DHT22;50274;45.640;11.756;2022-10-16T10:17:23;22.80;61.30
63017;DHT22;50274;45.640;11.756;2022-10-16T10:19:51;22.90;60.90
63017;DHT22;50274;45.640;11.756;2022-10-16T10:30:39;23.50;59.30
63017;DHT22;50274;45.640;11.756;2022-10-16T10:33:30;23.60;58.90
63017;DHT22;50274;45.640;11.756;2022-10-16T10:47:04;24.10;57.60
63017;DHT22;50274;45.640;11.756;2022-10-16T10:49:54;24.20;57.50
63017;DHT22;50274;45.640;11.756;2022-10-16T10:55:37;24.50;57.10
63017;DHT22;50274;45.640;11.756;2022-10-16T11:00:57;24.70;56.00
63017;DHT22;50274;45.640;11.756;2022-10-16T11:06:50;24.80;56.00
63017;DHT22;50274;45.640;11.756;2022-10-16T11:15:18;25.10;55.80
63017;DHT22;50274;45.640;11.756;2022-10-16T11:17:53;25.10;55.40
63017;DHT22;50274;45.640;11.756;2022-10-16T11:20:24;24.90;55.60
63017;DHT22;50274;45.640;11.756;2022-10-16T11:25:33;25.00;55.30
63017;DHT22;50274;45.640;11.756;2022-10-16T11:28:19;25.10;55.10
63017;DHT22;50274;45.640;11.756;2022-10-16T11:33:46;24.80;55.50
63017;DHT22;50274;45.640;11.756;2022-10-16T11:38:50;24.30;56.80
63017;DHT22;50274;45.640;11.756;2022-10-16T11:41:44;24.10;57.30
63017;DHT22;50274;45.640;11.756;2022-10-16T11:46:51;23.80;58.30
63017;DHT22;50274;45.640;11.756;2022-10-16T11:49:25;23.90;58.40
63017;DHT22;50274;45.640;11.756;2022-10-16T11:52:20;24.10;57.90
63017;DHT22;50274;45.640;11.756;2022-10-16T11:55:04;24.50;57.00
63017;DHT22;50274;45.640;11.756;2022-10-16T11:57:34;24.40;57.10
63017;DHT22;50274;45.640;11.756;2022-10-16T12:00:08;24.30;57.40
63017;DHT22;50274;45.640;11.756;2022-10-16T12:05:22;24.10;57.70
63017;DHT22;50274;45.640;11.756;2022-10-16T12:08:07;23.80;57.90
63017;DHT22;50274;45.640;11.756;2022-10-16T12:10:36;23.80;58.40
63017;DHT22;50274;45.640;11.756;2022-10-16T12:13:04;23.80;58.50
63017;DHT22;50274;45.640;11.756;2022-10-16T12:15:32;24.00;58.20
63017;DHT22;50274;45.640;11.756;2022-10-16T12:17:59;24.00;57.90
63017;DHT22;50274;45.640;11.756;2022-10-16T12:20:33;24.00;58.10
63017;DHT22;50274;45.640;11.756;2022-10-16T12:23:06;23.90;58.40
63017;DHT22;50274;45.640;11.756;2022-10-16T12:25:39;23.80;58.50
63017;DHT22;50274;45.640;11.756;2022-10-16T12:30:41;23.60;59.10
63017;DHT22;50274;45.640;11.756;2022-10-16T12:33:30;23.60;59.30
63017;DHT22;50274;45.640;11.756;2022-10-16T12:35:58;23.70;59.20
63017;DHT22;50274;45.640;11.756;2022-10-16T12:38:37;23.70;58.90
63017;DHT22;50274;45.640;11.756;2022-10-16T12:41:08;23.70;59.00
63017;DHT22;50274;45.640;11.756;2022-10-16T12:43:41;23.80;58.90
63017;DHT22;50274;45.640;11.756;2022-10-16T12:48:41;23.90;59.00
63017;DHT22;50274;45.640;11.756;2022-10-16T12:51:25;24.00;58.70
63017;DHT22;50274;45.640;11.756;2022-10-16T12:54:04;24.10;58.50
63017;DHT22;50274;45.640;11.756;2022-10-16T13:10:31;24.20;57.80
63017;DHT22;50274;45.640;11.756;2022-10-16T13:13:34;24.00;58.10
63017;DHT22;50274;45.640;11.756;2022-10-16T13:21:56;23.60;59.10
63017;DHT22;50274;45.640;11.756;2022-10-16T13:28:03;23.70;59.50
63017;DHT22;50274;45.640;11.756;2022-10-16T13:30:34;23.80;58.80
63017;DHT22;50274;45.640;11.756;2022-10-16T13:33:16;24.00;59.10
63017;DHT22;50274;45.640;11.756;2022-10-16T13:35:50;24.00;59.00
63017;DHT22;50274;45.640;11.756;2022-10-16T13:38:18;24.20;58.40
63017;DHT22;50274;45.640;11.756;2022-10-16T13:40:58;24.30;58.20
63017;DHT22;50274;45.640;11.756;2022-10-16T13:46:05;24.30;57.90
63017;DHT22;50274;45.640;11.756;2022-10-16T13:48:33;24.40;57.60
63017;DHT22;50274;45.640;11.756;2022-10-16T13:51:18;24.60;57.40
63017;DHT22;50274;45.640;11.756;2022-10-16T13:53:45;24.70;57.40
63017;DHT22;50274;45.640;11.756;2022-10-16T13:56:16;24.80;57.00
63017;DHT22;50274;45.640;11.756;2022-10-16T13:58:43;24.90;56.70
63017;DHT22;50274;45.640;11.756;2022-10-16T14:01:18;25.10;56.50
63017;DHT22;50274;45.640;11.756;2022-10-16T14:03:46;25.10;56.60
63017;DHT22;50274;45.640;11.756;2022-10-16T14:06:16;25.10;56.30
63017;DHT22;50274;45.640;11.756;2022-10-16T14:08:45;25.10;56.10
63017;DHT22;50274;45.640;11.756;2022-10-16T14:11:13;25.10;56.50
63017;DHT22;50274;45.640;11.756;2022-10-16T14:13:46;25.00;56.50
63017;DHT22;50274;45.640;11.756;2022-10-16T14:16:30;25.00;56.40
63017;DHT22;50274;45.640;11.756;2022-10-16T14:19:02;24.90;56.50
63017;DHT22;50274;45.640;11.756;2022-10-16T14:21:29;24.90;56.70
63017;DHT22;50274;45.640;11.756;2022-10-16T14:23:56;24.80;56.80
63017;DHT22;50274;45.640;11.756;2022-10-16T14:26:42;24.80;56.90
63017;DHT22;50274;45.640;11.756;2022-10-16T14:29:18;24.80;56.90
63017;DHT22;50274;45.640;11.756;2022-10-16T14:32:04;24.70;57.10
63017;DHT22;50274;45.640;11.756;2022-10-16T14:34:35;24.60;56.60
63017;DHT22;50274;45.640;11.756;2022-10-16T14:37:18;24.50;57.10
63017;DHT22;50274;45.640;11.756;2022-10-16T14:39:50;24.40;57.40
63017;DHT22;50274;45.640;11.756;2022-10-16T14:42:18;24.30;57.70
63017;DHT22;50274;45.640;11.756;2022-10-16T14:44:45;24.20;57.70
63017;DHT22;50274;45.640;11.756;2022-10-16T14:47:14;24.10;57.90
63017;DHT22;50274;45.640;11.756;2022-10-16T14:49:42;24.00;57.60
63017;DHT22;50274;45.640;11.756;2022-10-16T14:52:14;23.90;57.90
63017;DHT22;50274;45.640;11.756;2022-10-16T14:54:40;23.90;58.40
63017;DHT22;50274;45.640;11.756;2022-10-16T14:57:18;23.90;58.50
63017;DHT22;50274;45.640;11.756;2022-10-16T14:59:44;23.90;58.40
63017;DHT22;50274;45.640;11.756;2022-10-16T15:02:34;23.80;58.50
63017;DHT22;50274;45.640;11.756;2022-10-16T15:05:24;23.70;58.50
63017;DHT22;50274;45.640;11.756;2022-10-16T15:07:52;23.60;58.90
63017;DHT22;50274;45.640;11.756;2022-10-16T15:10:20;23.60;59.10
63017;DHT22;50274;45.640;11.756;2022-10-16T15:12:47;23.50;59.50
63017;DHT22;50274;45.640;11.756;2022-10-16T15:17:41;23.40;59.70
63017;DHT22;50274;45.640;11.756;2022-10-16T15:20:07;23.30;59.90
63017;DHT22;50274;45.640;11.756;2022-10-16T15:22:33;23.20;60.00
63017;DHT22;50274;45.640;11.756;2022-10-16T15:24:59;23.20;60.20
63017;DHT22;50274;45.640;11.756;2022-10-16T15:27:24;23.10;60.40
63017;DHT22;50274;45.640;11.756;2022-10-16T15:29:50;23.10;60.50
63017;DHT22;50274;45.640;11.756;2022-10-16T15:32:16;23.10;60.50
63017;DHT22;50274;45.640;11.756;2022-10-16T15:34:41;23.00;60.80
63017;DHT22;50274;45.640;11.756;2022-10-16T15:37:09;22.90;61.10
63017;DHT22;50274;45.640;11.756;2022-10-16T15:39:34;22.80;61.30
63017;DHT22;50274;45.640;11.756;2022-10-16T15:42:00;22.80;61.60
63017;DHT22;50274;45.640;11.756;2022-10-16T15:44:26;22.70;61.80
63017;DHT22;50274;45.640;11.756;2022-10-16T15:46:55;22.70;61.90
63017;DHT22;50274;45.640;11.756;2022-10-16T15:49:22;22.60;62.10
63017;DHT22;50274;45.640;11.756;2022-10-16T15:51:48;22.60;62.10
63017;DHT22;50274;45.640;11.756;2022-10-16T15:54:13;22.60;62.20
63017;DHT22;50274;45.640;11.756;2022-10-16T15:56:39;22.50;62.40
63017;DHT22;50274;45.640;11.756;2022-10-16T15:59:05;22.50;62.60
63017;DHT22;50274;45.640;11.756;2022-10-16T16:01:34;22.40;62.80
63017;DHT22;50274;45.640;11.756;2022-10-16T16:04:00;22.40;63.00
63017;DHT22;50274;45.640;11.756;2022-10-16T16:06:30;22.30;63.20
63017;DHT22;50274;45.640;11.756;2022-10-16T16:08:56;22.20;63.50
63017;DHT22;50274;45.640;11.756;2022-10-16T16:11:21;22.10;63.60
63017;DHT22;50274;45.640;11.756;2022-10-16T16:13:49;22.10;63.80
63017;DHT22;50274;45.640;11.756;2022-10-16T16:16:16;22.00;64.00
63017;DHT22;50274;45.640;11.756;2022-10-16T16:18:43;21.90;64.20
63017;DHT22;50274;45.640;11.756;2022-10-16T16:21:13;21.80;64.40
63017;DHT22;50274;45.640;11.756;2022-10-16T16:23:38;21.80;64.60
63017;DHT22;50274;45.640;11.756;2022-10-16T16:28:33;21.70;64.90
63017;DHT22;50274;45.640;11.756;2022-10-16T16:30:59;21.60;65.10
63017;DHT22;50274;45.640;11.756;2022-10-16T16:33:25;21.60;65.20
63017;DHT22;50274;45.640;11.756;2022-10-16T16:35:56;21.50;65.30
63017;DHT22;50274;45.640;11.756;2022-10-16T16:38:23;21.50;65.40
63017;DHT22;50274;45.640;11.756;2022-10-16T16:40:48;21.40;65.60
63017;DHT22;50274;45.640;11.756;2022-10-16T16:43:14;21.30;65.70
63017;DHT22;50274;45.640;11.756;2022-10-16T16:45:40;21.30;65.80
63017;DHT22;50274;45.640;11.756;2022-10-16T16:48:06;21.20;66.00
63017;DHT22;50274;45.640;11.756;2022-10-16T16:50:36;21.20;66.00
63017;DHT22;50274;45.640;11.756;2022-10-16T16:53:03;21.10;66.20
63017;DHT22;50274;45.640;11.756;2022-10-16T16:55:33;21.10;66.20
63017;DHT22;50274;45.640;11.756;2022-10-16T16:57:59;21.10;66.30
63017;DHT22;50274;45.640;11.756;2022-10-16T17:00:24;21.10;66.40
63017;DHT22;50274;45.640;11.756;2022-10-16T17:03:00;21.00;66.50
63017;DHT22;50274;45.640;11.756;2022-10-16T17:05:29;20.90;66.60
63017;DHT22;50274;45.640;11.756;2022-10-16T17:07:55;20.80;66.70
63017;DHT22;50274;45.640;11.756;2022-10-16T17:10:27;20.80;66.90
63017;DHT22;50274;45.640;11.756;2022-10-16T17:12:54;20.70;67.10
63017;DHT22;50274;45.640;11.756;2022-10-16T17:15:28;20.60;67.20
63017;DHT22;50274;45.640;11.756;2022-10-16T17:18:10;20.60;67.40
63017;DHT22;50274;45.640;11.756;2022-10-16T17:20:36;20.50;67.50
63017;DHT22;50274;45.640;11.756;2022-10-16T17:23:02;20.50;67.60
63017;DHT22;50274;45.640;11.756;2022-10-16T17:25:28;20.50;67.70
63017;DHT22;50274;45.640;11.756;2022-10-16T17:27:54;20.40;67.80
63017;DHT22;50274;45.640;11.756;2022-10-16T17:30:23;20.30;68.00
63017;DHT22;50274;45.640;11.756;2022-10-16T17:32:50;20.30;68.10
63017;DHT22;50274;45.640;11.756;2022-10-16T17:35:16;20.40;68.20
63017;DHT22;50274;45.640;11.756;2022-10-16T17:37:42;20.30;68.20
63017;DHT22;50274;45.640;11.756;2022-10-16T17:40:10;20.30;68.30